createdAt,value
2022-12-25T00:01:39.017Z,10.13
2022-12-25T00:04:05.664Z,9.23
2022-12-25T00:06:32.117Z,8.13
2022-12-25T00:08:58.750Z,8.07
2022-12-25T00:11:25.205Z,9.93
2022-12-25T00:13:51.710Z,8.10
2022-12-25T00:16:24.374Z,8.97
2022-12-25T00:18:51.569Z,10.03
2022-12-25T00:21:19.813Z,9.80
2022-12-25T00:23:46.709Z,10.20
2022-12-25T00:26:16.890Z,10.17
2022-12-25T00:28:43.764Z,11.60
2022-12-25T00:31:18.426Z,9.20
2022-12-25T00:33:46.873Z,8.87
2022-12-25T00:36:14.929Z,10.27
2022-12-25T00:38:42.122Z,11.67
2022-12-25T00:41:17.156Z,11.10
2022-12-25T00:43:44.263Z,9.63
2022-12-25T00:46:12.845Z,10.63
2022-12-25T00:48:39.875Z,11.60
2022-12-25T00:51:08.999Z,10.13
2022-12-25T00:53:35.494Z,11.37
2022-12-25T00:56:05.422Z,12.27
2022-12-25T00:58:33.735Z,10.87
2022-12-25T01:01:00.327Z,11.67
2022-12-25T01:03:27.479Z,11.43
2022-12-25T01:05:59.571Z,13.67
2022-12-25T01:08:27.666Z,13.50
2022-12-25T01:10:56.093Z,11.83
2022-12-25T01:13:22.520Z,11.80
2022-12-25T01:15:49.435Z,12.20
2022-12-25T01:18:15.937Z,13.40
2022-12-25T01:20:42.347Z,11.57
2022-12-25T01:23:08.810Z,15.03
2022-12-25T01:25:35.435Z,12.97
2022-12-25T01:28:01.988Z,14.17
2022-12-25T01:30:28.576Z,13.77
2022-12-25T01:32:54.976Z,13.80
2022-12-25T01:35:21.447Z,12.83
2022-12-25T01:37:47.881Z,12.50
2022-12-25T01:40:14.343Z,13.17
2022-12-25T01:42:40.775Z,13.33
2022-12-25T01:45:32.193Z,12.73
2022-12-25T01:47:59.758Z,12.53
2022-12-25T01:50:27.627Z,13.00
2022-12-25T01:52:55.148Z,12.07
2022-12-25T01:55:22.536Z,11.87
2022-12-25T01:57:49.598Z,12.60
2022-12-25T02:00:16.344Z,12.17
2022-12-25T02:02:44.599Z,12.50
2022-12-25T02:05:15.671Z,11.83
2022-12-25T02:07:42.953Z,13.43
2022-12-25T02:10:10.713Z,12.17
2022-12-25T02:12:38.158Z,13.10
2022-12-25T02:15:09.597Z,10.97
2022-12-25T02:17:43.318Z,12.67
2022-12-25T02:20:28.095Z,12.17
2022-12-25T02:23:07.222Z,12.27
2022-12-25T02:25:59.238Z,12.00
2022-12-25T02:28:52.655Z,12.20
2022-12-25T02:31:29.453Z,10.93
2022-12-25T02:34:17.484Z,12.50
2022-12-25T02:36:57.530Z,12.57
2022-12-25T02:39:58.219Z,12.43
2022-12-25T02:43:07.632Z,11.67
2022-12-25T02:46:10.541Z,12.87
2022-12-25T02:49:03.905Z,12.97
2022-12-25T02:51:54.064Z,13.77
2022-12-25T02:54:49.553Z,11.80
2022-12-25T02:57:37.480Z,11.87
2022-12-25T03:00:24.203Z,12.97
2022-12-25T03:03:11.726Z,13.40
2022-12-25T03:05:58.982Z,13.80
2022-12-25T03:08:34.501Z,13.17
2022-12-25T03:11:25.764Z,14.20
2022-12-25T03:13:55.683Z,13.50
2022-12-25T03:16:41.343Z,14.03
2022-12-25T03:19:26.927Z,13.53
2022-12-25T03:22:13.724Z,13.83
2022-12-25T03:25:00.163Z,11.63
2022-12-25T03:27:29.187Z,14.03
2022-12-25T03:30:14.304Z,13.33
2022-12-25T03:32:58.786Z,13.20
2022-12-25T03:35:33.692Z,14.87
2022-12-25T03:38:47.158Z,14.83
2022-12-25T03:41:45.568Z,14.33
2022-12-25T03:44:46.442Z,15.87
2022-12-25T03:47:49.307Z,16.03
2022-12-25T03:50:40.622Z,16.37
2022-12-25T03:53:40.165Z,16.90
2022-12-25T03:56:26.512Z,14.07
2022-12-25T03:59:21.046Z,16.20
2022-12-25T04:02:09.509Z,17.93
2022-12-25T04:04:54.593Z,15.60
2022-12-25T04:07:39.395Z,18.03
2022-12-25T04:10:25.147Z,17.40
2022-12-25T04:13:10.053Z,15.97
2022-12-25T04:15:54.950Z,15.77
2022-12-25T04:18:40.116Z,17.40
2022-12-25T04:21:25.397Z,16.20
2022-12-25T04:24:10.363Z,16.43
2022-12-25T04:26:55.169Z,17.30
2022-12-25T04:29:40.076Z,17.80
2022-12-25T04:32:25.215Z,17.83
2022-12-25T04:35:10.515Z,18.87
2022-12-25T04:37:36.957Z,17.93
2022-12-25T04:40:03.961Z,17.87
2022-12-25T04:42:30.355Z,19.20
2022-12-25T04:44:56.789Z,17.83
2022-12-25T04:47:23.219Z,17.50
2022-12-25T04:49:50.374Z,17.00
2022-12-25T04:52:16.789Z,18.97
2022-12-25T04:54:43.236Z,16.70
2022-12-25T04:57:09.700Z,18.93
2022-12-25T04:59:36.100Z,17.07
2022-12-25T05:02:02.673Z,19.20
2022-12-25T05:04:29.227Z,19.23
2022-12-25T05:06:55.638Z,17.60
2022-12-25T05:09:22.045Z,18.80
2022-12-25T05:11:48.463Z,20.47
2022-12-25T05:14:15.348Z,19.20
2022-12-25T05:16:42.027Z,18.40
2022-12-25T05:19:08.567Z,18.87
2022-12-25T05:21:34.998Z,18.50
2022-12-25T05:24:01.565Z,17.93
2022-12-25T05:26:28.101Z,17.60
2022-12-25T05:28:54.996Z,18.93
2022-12-25T05:31:21.868Z,16.80
2022-12-25T05:33:52.516Z,17.03
2022-12-25T05:36:19.738Z,17.43
2022-12-25T05:38:46.336Z,17.13
2022-12-25T05:41:12.847Z,18.63
2022-12-25T05:43:39.279Z,17.00
2022-12-25T05:46:10.680Z,15.70
2022-12-25T05:48:37.919Z,18.03
2022-12-25T05:51:06.433Z,14.83
2022-12-25T05:53:34.341Z,16.77
2022-12-25T05:56:03.379Z,16.23
2022-12-25T05:58:31.152Z,15.27
2022-12-25T06:00:57.796Z,15.13
2022-12-25T06:03:25.026Z,14.63
2022-12-25T06:05:52.464Z,15.17
2022-12-25T06:08:18.897Z,13.57
2022-12-25T06:10:45.350Z,13.93
2022-12-25T06:13:11.760Z,14.63
2022-12-25T06:15:40.197Z,13.90
2022-12-25T06:18:06.928Z,13.77
2022-12-25T06:20:33.756Z,13.03
2022-12-25T06:23:00.813Z,12.83
2022-12-25T06:25:27.460Z,12.33
2022-12-25T06:27:53.883Z,13.10
2022-12-25T06:30:20.297Z,11.70
2022-12-25T06:32:46.687Z,13.07
2022-12-25T06:35:13.142Z,12.33
2022-12-25T06:37:39.547Z,12.40
2022-12-25T06:40:06.687Z,12.37
2022-12-25T06:42:33.181Z,13.37
2022-12-25T06:44:59.770Z,14.40
2022-12-25T06:47:26.186Z,15.17
2022-12-25T06:49:52.632Z,12.87
2022-12-25T06:52:19.052Z,11.63
2022-12-25T06:54:46.786Z,15.43
2022-12-25T06:57:13.253Z,16.07
2022-12-25T06:59:39.666Z,16.20
2022-12-25T07:02:06.272Z,15.83
2022-12-25T07:04:39.877Z,17.73
2022-12-25T07:07:09.329Z,15.27
2022-12-25T07:09:39.205Z,15.80
2022-12-25T07:12:16.924Z,18.90
2022-12-25T07:14:45.176Z,17.80
2022-12-25T07:17:11.987Z,16.87
2022-12-25T07:19:44.671Z,17.50
2022-12-25T07:22:11.228Z,17.43
2022-12-25T07:24:37.588Z,15.17
2022-12-25T07:27:04.137Z,17.43
2022-12-25T07:29:30.564Z,18.50
2022-12-25T07:31:57.136Z,19.23
2022-12-25T07:34:23.994Z,18.47
2022-12-25T07:36:50.578Z,16.77
2022-12-25T07:39:17.019Z,18.00
2022-12-25T07:41:44.282Z,19.03
2022-12-25T07:44:10.703Z,18.43
2022-12-25T07:46:37.115Z,19.77
2022-12-25T07:49:03.548Z,20.23
2022-12-25T07:51:30.230Z,22.10
2022-12-25T07:53:58.754Z,18.90
2022-12-25T07:56:25.605Z,19.97
2022-12-25T07:58:51.990Z,19.50
2022-12-25T08:01:22.048Z,18.77
2022-12-25T08:03:57.526Z,19.87
2022-12-25T08:06:29.582Z,18.50
2022-12-25T08:08:57.390Z,17.70
2022-12-25T08:11:23.919Z,18.57
2022-12-25T08:13:50.422Z,18.60
2022-12-25T08:16:16.844Z,16.60
2022-12-25T08:18:43.699Z,17.63
2022-12-25T08:21:13.823Z,16.60
2022-12-25T08:23:42.878Z,16.30
2022-12-25T08:26:13.005Z,15.47
2022-12-25T08:28:39.788Z,14.93
2022-12-25T08:31:27.557Z,16.30
2022-12-25T08:33:56.982Z,15.50
2022-12-25T08:36:24.234Z,15.77
2022-12-25T08:38:50.738Z,15.47
2022-12-25T08:41:17.920Z,15.13
2022-12-25T08:43:44.504Z,14.70
2022-12-25T08:46:11.112Z,12.87
2022-12-25T08:48:37.984Z,14.27
2022-12-25T08:51:08.195Z,11.63
2022-12-25T08:53:34.601Z,11.23
2022-12-25T08:56:06.161Z,11.27
2022-12-25T08:58:33.317Z,10.83
2022-12-25T09:01:00.077Z,11.13
2022-12-25T09:03:27.065Z,9.33
2022-12-25T09:05:54.428Z,9.67
2022-12-25T09:08:21.946Z,10.77
2022-12-25T09:10:49.379Z,10.80
2022-12-25T09:13:15.876Z,9.83
2022-12-25T09:15:42.366Z,11.70
2022-12-25T09:18:08.837Z,10.63
2022-12-25T09:20:35.246Z,10.23
2022-12-25T09:23:01.687Z,11.50
2022-12-25T09:25:29.160Z,10.10
2022-12-25T09:27:56.766Z,11.13
2022-12-25T09:30:23.329Z,11.27
2022-12-25T09:32:49.780Z,11.67
2022-12-25T09:35:18.457Z,11.03
2022-12-25T09:37:45.069Z,11.50
2022-12-25T09:40:19.930Z,11.33
2022-12-25T09:42:48.507Z,9.57
2022-12-25T09:45:19.879Z,10.53
2022-12-25T09:47:49.421Z,8.40
2022-12-25T09:50:24.912Z,8.43
2022-12-25T09:53:06.161Z,8.37
2022-12-25T09:55:36.391Z,9.87
2022-12-25T09:58:12.216Z,9.10
2022-12-25T10:00:43.110Z,8.13
2022-12-25T10:03:43.741Z,8.47
2022-12-25T10:06:38.637Z,8.83
2022-12-25T10:09:43.767Z,7.90
2022-12-25T10:12:28.750Z,8.07
2022-12-25T10:15:09.939Z,9.37
2022-12-25T10:17:54.490Z,9.90
2022-12-25T10:20:45.396Z,10.40
2022-12-25T10:23:17.645Z,10.40
2022-12-25T10:25:45.131Z,11.70
2022-12-25T10:28:23.602Z,11.93
2022-12-25T10:30:53.266Z,9.57
2022-12-25T10:33:21.336Z,11.57
2022-12-25T10:35:48.155Z,11.30
2022-12-25T10:38:17.104Z,10.87
2022-12-25T10:41:12.770Z,11.77
2022-12-25T10:43:45.584Z,12.20
2022-12-25T10:46:14.563Z,10.63
2022-12-25T10:48:53.236Z,11.50
2022-12-25T10:51:46.117Z,11.90
2022-12-25T10:54:28.514Z,10.37
2022-12-25T10:57:19.615Z,11.20
2022-12-25T10:59:48.239Z,11.27
2022-12-25T11:02:54.846Z,10.67
2022-12-25T11:05:28.289Z,9.73
2022-12-25T11:07:56.638Z,9.97
2022-12-25T11:10:25.286Z,10.97
2022-12-25T11:12:53.047Z,10.90
2022-12-25T11:15:39.528Z,9.53
2022-12-25T11:18:43.793Z,9.83
2022-12-25T11:21:26.868Z,9.63
2022-12-25T11:23:59.828Z,9.43
2022-12-25T11:26:28.143Z,9.97
2022-12-25T11:28:58.165Z,9.23
2022-12-25T11:31:42.844Z,9.40
2022-12-25T11:34:30.660Z,10.23
2022-12-25T11:36:59.373Z,10.23
2022-12-25T11:39:30.223Z,10.63
2022-12-25T11:42:08.814Z,11.87
2022-12-25T11:45:02.593Z,11.97
2022-12-25T11:47:46.676Z,10.80
2022-12-25T11:50:27.964Z,11.77
2022-12-25T11:52:55.453Z,10.97
2022-12-25T11:55:31.691Z,11.13
2022-12-25T11:58:05.832Z,10.93
2022-12-25T12:00:35.243Z,9.90
2022-12-25T12:03:11.602Z,10.27
2022-12-25T12:05:53.624Z,9.87
2022-12-25T12:08:20.097Z,10.20
2022-12-25T12:11:15.619Z,10.67
2022-12-25T12:14:22.115Z,11.03
2022-12-25T12:16:48.715Z,9.93
2022-12-25T12:19:31.185Z,10.73
2022-12-25T12:22:01.348Z,10.60
2022-12-25T12:24:39.018Z,11.57
2022-12-25T12:27:11.608Z,10.93
2022-12-25T12:29:44.606Z,10.43
2022-12-25T12:32:29.157Z,11.87
2022-12-25T12:34:56.849Z,11.53
2022-12-25T12:37:32.894Z,10.80
2022-12-25T12:40:00.088Z,11.87
2022-12-25T12:42:32.909Z,11.13
2022-12-25T12:45:18.186Z,11.53
2022-12-25T12:47:50.723Z,11.80
2022-12-25T12:50:40.824Z,12.07
2022-12-25T12:53:16.292Z,11.97
2022-12-25T12:55:42.792Z,12.57
2022-12-25T12:58:23.850Z,11.00
2022-12-25T13:01:22.569Z,12.33
2022-12-25T13:04:04.198Z,12.07
2022-12-25T13:06:43.731Z,12.70
2022-12-25T13:09:31.199Z,12.67
2022-12-25T13:11:57.721Z,11.73
2022-12-25T13:14:25.178Z,14.33
2022-12-25T13:16:54.225Z,13.80
2022-12-25T13:19:23.986Z,13.03
2022-12-25T13:22:01.919Z,14.00
2022-12-25T13:24:30.976Z,12.30
2022-12-25T13:26:58.335Z,12.50
2022-12-25T13:29:38.132Z,11.67
2022-12-25T13:32:08.482Z,15.77
2022-12-25T13:34:41.061Z,14.73
2022-12-25T13:37:10.311Z,15.60
2022-12-25T13:39:39.424Z,14.20
2022-12-25T13:42:09.501Z,14.57
2022-12-25T13:44:47.447Z,15.30
2022-12-25T13:47:20.001Z,13.80
2022-12-25T13:49:47.281Z,14.53
2022-12-25T13:52:17.819Z,21.03
2022-12-25T13:55:02.629Z,16.77
2022-12-25T13:57:36.103Z,13.90
2022-12-25T14:00:05.183Z,14.60
2022-12-25T14:02:36.533Z,14.17
2022-12-25T14:05:21.695Z,14.00
2022-12-25T14:07:56.146Z,15.13
2022-12-25T14:10:25.925Z,14.97
2022-12-25T14:12:55.093Z,15.30
2022-12-25T14:15:23.247Z,15.30
2022-12-25T14:17:51.429Z,16.63
2022-12-25T14:20:28.553Z,16.30
2022-12-25T14:22:57.717Z,15.27
2022-12-25T14:25:30.154Z,17.77
2022-12-25T14:27:57.017Z,16.60
2022-12-25T14:30:27.394Z,16.97
2022-12-25T14:32:55.892Z,16.13
2022-12-25T14:35:23.805Z,17.10
2022-12-25T14:37:56.444Z,16.80
2022-12-25T14:40:27.733Z,17.43
2022-12-25T14:43:02.920Z,16.70
2022-12-25T14:45:32.232Z,15.03
2022-12-25T14:48:18.528Z,15.03
2022-12-25T14:51:08.672Z,16.97
2022-12-25T14:53:37.755Z,16.37
2022-12-25T14:56:06.630Z,16.57
2022-12-25T14:58:41.276Z,14.67
2022-12-25T15:01:08.055Z,15.00
2022-12-25T15:03:37.741Z,16.10
2022-12-25T15:06:19.069Z,18.00
2022-12-25T15:08:59.654Z,20.30
2022-12-25T15:11:26.682Z,17.27
2022-12-25T15:13:53.106Z,19.77
2022-12-25T15:16:34.191Z,19.93
2022-12-25T15:19:01.935Z,17.20
2022-12-25T15:21:34.406Z,16.40
2022-12-25T15:24:00.901Z,17.30
2022-12-25T15:26:29.384Z,18.07
2022-12-25T15:28:56.172Z,16.77
2022-12-25T15:31:32.835Z,16.67
2022-12-25T15:34:01.948Z,18.90
2022-12-25T15:36:29.052Z,16.07
2022-12-25T15:38:56.282Z,17.13
2022-12-25T15:41:45.360Z,17.27
2022-12-25T15:44:12.577Z,17.17
2022-12-25T15:46:39.199Z,18.37
2022-12-25T15:49:05.735Z,17.13
2022-12-25T15:51:32.917Z,17.33
2022-12-25T15:53:59.652Z,18.93
2022-12-25T15:56:26.677Z,18.50
2022-12-25T15:58:53.170Z,18.23
2022-12-25T16:01:22.689Z,18.53
2022-12-25T16:03:49.388Z,17.90
2022-12-25T16:06:17.305Z,17.77
2022-12-25T16:08:44.489Z,17.07
2022-12-25T16:11:11.469Z,19.33
2022-12-25T16:13:38.083Z,17.37
2022-12-25T16:16:05.113Z,16.50
2022-12-25T16:18:32.927Z,19.70
2022-12-25T16:20:59.811Z,18.10
2022-12-25T16:23:26.304Z,16.57
2022-12-25T16:25:52.723Z,18.30
2022-12-25T16:28:19.197Z,16.67
2022-12-25T16:30:45.716Z,17.83
2022-12-25T16:33:12.315Z,18.47
2022-12-25T16:35:38.830Z,17.50
2022-12-25T16:38:05.312Z,18.17
2022-12-25T16:40:32.320Z,18.77
2022-12-25T16:42:59.013Z,18.70
2022-12-25T16:45:25.495Z,19.53
2022-12-25T16:47:51.885Z,19.40
2022-12-25T16:50:18.631Z,19.70
2022-12-25T16:52:45.092Z,19.17
2022-12-25T16:55:11.654Z,17.63
2022-12-25T16:57:38.133Z,20.40
2022-12-25T17:00:05.217Z,16.63
2022-12-25T17:02:31.807Z,18.17
2022-12-25T17:04:58.436Z,19.07
2022-12-25T17:07:24.871Z,17.80
2022-12-25T17:09:51.341Z,19.27
2022-12-25T17:12:17.779Z,20.37
2022-12-25T17:14:44.381Z,17.67
2022-12-25T17:17:11.050Z,19.47
2022-12-25T17:19:37.545Z,16.47
2022-12-25T17:22:03.969Z,18.47
2022-12-25T17:24:30.634Z,17.93
2022-12-25T17:26:57.105Z,21.73
2022-12-25T17:29:25.064Z,16.23
2022-12-25T17:31:51.743Z,21.60
2022-12-25T17:34:18.893Z,17.33
2022-12-25T17:36:45.336Z,17.40
2022-12-25T17:39:11.781Z,18.07
2022-12-25T17:41:38.617Z,18.20
2022-12-25T17:44:05.249Z,18.10
2022-12-25T17:46:31.788Z,18.63
2022-12-25T17:49:00.189Z,21.27
2022-12-25T17:51:28.663Z,19.10
2022-12-25T17:53:58.165Z,17.23
2022-12-25T17:56:24.941Z,16.23
2022-12-25T17:58:53.802Z,16.50
2022-12-25T18:01:20.864Z,17.33
2022-12-25T18:03:47.531Z,16.57
2022-12-25T18:06:20.612Z,17.37
2022-12-25T18:08:47.891Z,16.03
2022-12-25T18:11:17.735Z,16.17
2022-12-25T18:13:48.261Z,16.47
2022-12-25T18:16:15.269Z,17.80
2022-12-25T18:18:46.521Z,17.90
2022-12-25T18:21:18.014Z,18.00
2022-12-25T18:23:46.252Z,18.00
2022-12-25T18:26:13.296Z,17.17
2022-12-25T18:28:42.337Z,15.93
2022-12-25T18:31:11.030Z,16.20
2022-12-25T18:33:37.673Z,17.13
2022-12-25T18:36:04.741Z,17.37
2022-12-25T18:38:31.184Z,18.37
2022-12-25T18:40:58.063Z,16.17
2022-12-25T18:43:53.737Z,19.10
2022-12-25T18:46:11.472Z,17.80
2022-12-25T18:48:39.191Z,16.87
2022-12-25T18:51:12.126Z,19.13
2022-12-25T18:53:38.642Z,18.70
2022-12-25T18:56:11.105Z,19.40
2022-12-25T18:58:38.259Z,17.37
2022-12-25T19:01:14.310Z,17.27
2022-12-25T19:03:41.495Z,19.57
2022-12-25T19:06:08.190Z,18.57
2022-12-25T19:08:34.775Z,22.13
2022-12-25T19:11:06.324Z,20.00
2022-12-25T19:13:32.729Z,20.07
2022-12-25T19:15:59.653Z,16.83
2022-12-25T19:18:26.206Z,21.17
2022-12-25T19:20:52.639Z,21.50
2022-12-25T19:23:19.105Z,20.57
2022-12-25T19:25:45.569Z,16.40
2022-12-25T19:28:11.989Z,18.83
2022-12-25T19:30:38.593Z,18.50
2022-12-25T19:33:06.833Z,19.50
2022-12-25T19:35:34.510Z,17.33
2022-12-25T19:38:00.910Z,18.27
2022-12-25T19:40:27.380Z,20.03
2022-12-25T19:42:53.774Z,19.13
2022-12-25T19:45:21.533Z,22.10
2022-12-25T19:47:48.137Z,19.60
2022-12-25T19:50:14.693Z,19.80
2022-12-25T19:52:41.113Z,19.43
2022-12-25T19:55:07.898Z,20.07
2022-12-25T19:57:34.378Z,18.17
2022-12-25T20:00:00.853Z,23.23
2022-12-25T20:02:27.361Z,19.67
2022-12-25T20:04:53.893Z,22.70
2022-12-25T20:07:20.296Z,20.47
2022-12-25T20:09:46.687Z,19.00
2022-12-25T20:12:15.029Z,20.60
2022-12-25T20:14:41.493Z,19.53
2022-12-25T20:17:13.662Z,18.47
2022-12-25T20:19:42.054Z,18.50
2022-12-25T20:22:08.431Z,20.40
2022-12-25T20:24:34.860Z,20.07
2022-12-25T20:27:01.428Z,20.00
2022-12-25T20:29:27.899Z,17.90
2022-12-25T20:31:54.438Z,18.87
2022-12-25T20:34:20.965Z,19.17
2022-12-25T20:36:49.212Z,18.20
2022-12-25T20:39:15.639Z,17.73
2022-12-25T20:41:42.115Z,20.03
2022-12-25T20:44:10.043Z,18.37
2022-12-25T20:46:37.329Z,18.53
2022-12-25T20:49:04.247Z,18.73
2022-12-25T20:51:30.937Z,17.83
2022-12-25T20:53:57.491Z,18.10
2022-12-25T20:56:25.727Z,17.80
2022-12-25T20:58:57.659Z,18.07
2022-12-25T21:01:24.725Z,18.47
2022-12-25T21:03:51.581Z,18.23
2022-12-25T21:06:18.224Z,17.67
2022-12-25T21:08:44.747Z,17.40
2022-12-25T21:11:11.945Z,19.10
2022-12-25T21:13:40.897Z,16.87
2022-12-25T21:16:10.646Z,17.90
2022-12-25T21:18:37.052Z,16.90
2022-12-25T21:21:07.248Z,17.83
2022-12-25T21:23:35.549Z,18.00
2022-12-25T21:26:12.531Z,16.13
2022-12-25T21:28:38.972Z,15.70
2022-12-25T21:31:08.802Z,17.33
2022-12-25T21:33:53.958Z,17.07
2022-12-25T21:36:29.416Z,15.37
2022-12-25T21:39:01.566Z,15.83
2022-12-25T21:41:30.428Z,15.93
2022-12-25T21:43:57.175Z,15.80
2022-12-25T21:46:24.434Z,15.13
2022-12-25T21:48:51.586Z,15.43
2022-12-25T21:51:39.433Z,15.50
2022-12-25T21:54:06.787Z,15.90
2022-12-25T21:56:41.455Z,15.63
2022-12-25T21:59:12.032Z,15.40
2022-12-25T22:01:38.654Z,15.70
2022-12-25T22:04:07.205Z,15.93
2022-12-25T22:06:52.511Z,15.10
2022-12-25T22:09:19.474Z,14.30
2022-12-25T22:12:04.307Z,14.80
2022-12-25T22:14:52.959Z,13.77
2022-12-25T22:17:43.458Z,14.77
2022-12-25T22:20:17.104Z,14.17
2022-12-25T22:22:44.149Z,14.40
2022-12-25T22:25:11.834Z,13.40
2022-12-25T22:27:39.510Z,15.13
2022-12-25T22:30:08.739Z,13.93
2022-12-25T22:32:35.174Z,16.20
2022-12-25T22:35:01.739Z,15.93
2022-12-25T22:37:28.243Z,15.20
2022-12-25T22:39:54.626Z,15.83
2022-12-25T22:42:21.503Z,16.37
2022-12-25T22:44:47.959Z,17.13
2022-12-25T22:47:14.402Z,15.60
2022-12-25T22:49:40.845Z,15.93
2022-12-25T22:52:09.731Z,17.50
2022-12-25T22:54:36.702Z,17.10
2022-12-25T22:57:03.171Z,14.30
2022-12-25T22:59:29.614Z,16.27
2022-12-25T23:01:56.295Z,17.03
2022-12-25T23:04:23.865Z,16.83
2022-12-25T23:06:51.076Z,16.17
2022-12-25T23:09:24.493Z,18.37
2022-12-25T23:11:51.423Z,17.93
2022-12-25T23:14:36.606Z,17.80
2022-12-25T23:17:03.200Z,16.43
2022-12-25T23:19:48.345Z,16.83
2022-12-25T23:22:33.720Z,16.33
2022-12-25T23:25:18.416Z,17.23
2022-12-25T23:27:45.242Z,15.73
2022-12-25T23:30:15.301Z,15.10
2022-12-25T23:32:42.677Z,15.10
2022-12-25T23:35:10.139Z,15.20
2022-12-25T23:37:36.555Z,15.07
2022-12-25T23:40:03.199Z,15.57
2022-12-25T23:42:29.585Z,13.67
2022-12-25T23:44:56.044Z,15.17
2022-12-25T23:47:22.579Z,14.70
2022-12-25T23:49:48.948Z,13.93
2022-12-25T23:52:15.434Z,13.47
2022-12-25T23:54:41.871Z,12.03
2022-12-25T23:57:08.495Z,13.47
2022-12-25T23:59:34.970Z,13.03
